Time;durP1;ratioP1;P1;durP2;ratioP2;P2;SDS_P1;SDS_P2;PMS_P1;PMS_P2;Temp;Humidity;BMP_temperature;BMP_pressure;BME280_temperature;BME280_humidity;BME280_pressure;Samples;Min_cycle;Max_cycle;Signal;HPM_P1;HPM_P2
2023/10/05 00:02:08;;;;;;;5.60;2.30;;;;;;;;;;5106562;28;20043;-57
2023/10/05 00:04:41;;;;;;;6.80;2.25;;;;;;;;;;5087287;28;20035;-58
2023/10/05 00:07:16;;;;;;;7.90;2.88;;;;;;;;;;5086195;28;20053;-59
2023/10/05 00:09:43;;;;;;;3.17;2.17;;;;;;;;;;5106707;28;20039;-59
2023/10/05 00:12:18;;;;;;;4.30;2.13;;;;;;;;;;5085427;28;20520;-59
2023/10/05 00:14:48;;;;;;;6.85;2.35;;;;;;;;;;5104350;28;20027;-59
2023/10/05 00:17:19;;;;;;;3.65;2.17;;;;;;;;;;5106968;28;20034;-59
2023/10/05 00:19:45;;;;;;;4.55;2.10;;;;;;;;;;5087938;28;20042;-59
2023/10/05 00:22:11;;;;;;;6.32;2.45;;;;;;;;;;5105512;28;20032;-59
2023/10/05 00:24:39;;;;;;;3.78;2.10;;;;;;;;;;5104759;28;20043;-59
2023/10/05 00:27:09;;;;;;;4.85;2.35;;;;;;;;;;5106069;28;20116;-59
2023/10/05 00:29:41;;;;;;;4.68;2.40;;;;;;;;;;5106049;28;20054;-59
2023/10/05 00:32:15;;;;;;;8.13;2.47;;;;;;;;;;5105850;28;20036;-59
2023/10/05 00:34:43;;;;;;;8.98;2.58;;;;;;;;;;5106813;28;20058;-59
2023/10/05 00:37:10;;;;;;;5.35;2.08;;;;;;;;;;5088830;28;20032;-59
2023/10/05 00:39:37;;;;;;;5.55;2.30;;;;;;;;;;5103750;28;20039;-59
2023/10/05 00:44:30;;;;;;;8.25;2.75;;;;;;;;;;5105942;28;20050;-59
2023/10/05 00:47:01;;;;;;;3.38;2.30;;;;;;;;;;5105512;28;20047;-59
2023/10/05 00:49:41;;;;;;;5.07;2.47;;;;;;;;;;5107256;28;20048;-59
2023/10/05 00:52:15;;;;;;;7.88;2.83;;;;;;;;;;5105052;28;20040;-59
2023/10/05 00:54:50;;;;;;;5.70;2.20;;;;;;;;;;5103897;28;20024;-59
2023/10/05 00:57:22;;;;;;;7.00;2.58;;;;;;;;;;5103858;28;20044;-59
2023/10/05 01:00:43;;;;;;;5.88;2.53;;;;;;;;;;5107325;28;20574;-59
2023/10/05 01:02:59;;;;;;;4.60;2.25;;;;;;;;;;5083104;28;20501;-59
2023/10/05 01:05:34;;;;;;;6.18;2.42;;;;;;;;;;5106815;28;20425;-58
2023/10/05 01:08:04;;;;;;;4.88;2.55;;;;;;;;;;5091929;28;20398;-59
2023/10/05 01:10:48;;;;;;;4.78;2.53;;;;;;;;;;5109831;28;20429;-59
2023/10/05 01:13:32;;;;;;;10.27;2.53;;;;;;;;;;5108148;28;20039;-57
2023/10/05 01:16:03;;;;;;;7.18;3.17;;;;;;;;;;5109048;28;20109;-59
2023/10/05 01:18:31;;;;;;;7.22;3.20;;;;;;;;;;5109865;28;20048;-59
2023/10/05 01:21:00;;;;;;;8.70;2.90;;;;;;;;;;5088680;28;20032;-59
2023/10/05 01:23:37;;;;;;;6.38;2.85;;;;;;;;;;5107728;28;20487;-58
2023/10/05 01:26:13;;;;;;;7.63;2.75;;;;;;;;;;5090398;28;20047;-58
2023/10/05 01:28:43;;;;;;;5.30;2.47;;;;;;;;;;5095134;28;20684;-58
2023/10/05 01:31:16;;;;;;;6.57;2.78;;;;;;;;;;5109030;28;20030;-59
2023/10/05 01:33:46;;;;;;;5.28;2.60;;;;;;;;;;5108443;28;20054;-58
2023/10/05 01:36:18;;;;;;;3.80;2.38;;;;;;;;;;5087855;28;20402;-59
2023/10/05 01:38:45;;;;;;;6.47;2.90;;;;;;;;;;5107928;28;20038;-59
2023/10/05 01:41:17;;;;;;;7.88;2.47;;;;;;;;;;5107784;28;20054;-59
2023/10/05 01:43:43;;;;;;;5.35;2.70;;;;;;;;;;5107801;28;20051;-59
2023/10/05 01:46:10;;;;;;;6.15;2.67;;;;;;;;;;5102734;28;20497;-59
2023/10/05 01:48:38;;;;;;;5.72;2.35;;;;;;;;;;5103826;28;20046;-59
2023/10/05 01:51:15;;;;;;;5.28;2.60;;;;;;;;;;5089449;28;20056;-58
2023/10/05 01:53:43;;;;;;;7.10;2.88;;;;;;;;;;5091716;28;20031;-56
2023/10/05 01:56:20;;;;;;;7.72;2.40;;;;;;;;;;5107614;28;20054;-59
2023/10/05 01:58:50;;;;;;;5.53;2.75;;;;;;;;;;5092196;28;20042;-59
2023/10/05 02:01:18;;;;;;;;;;;;;;;;;;5092236;28;20043;-59
2023/10/05 02:03:44;;;;;;;5.78;2.58;;;;;;;;;;5108632;28;19912;-59
2023/10/05 02:06:11;;;;;;;5.60;2.65;;;;;;;;;;5109162;28;20035;-59
2023/10/05 02:08:39;;;;;;;7.03;2.85;;;;;;;;;;5089181;28;20044;-59
2023/10/05 02:11:06;;;;;;;4.60;2.90;;;;;;;;;;5090922;28;20046;-59
2023/10/05 02:13:33;;;;;;;7.03;3.03;;;;;;;;;;5058922;28;20032;-59
2023/10/05 02:16:00;;;;;;;8.77;3.17;;;;;;;;;;5089415;28;20046;-58
2023/10/05 02:18:28;;;;;;;5.05;2.30;;;;;;;;;;5088546;28;20526;-59
2023/10/05 02:21:05;;;;;;;7.82;2.67;;;;;;;;;;5090039;28;20035;-58
2023/10/05 02:23:37;;;;;;;7.18;2.67;;;;;;;;;;5108507;28;20035;-58
2023/10/05 02:28:48;;;;;;;9.02;3.47;;;;;;;;;;5108665;28;20556;-58
2023/10/05 02:31:15;;;;;;;6.60;2.95;;;;;;;;;;5107566;28;20410;-57
2023/10/05 02:33:43;;;;;;;8.65;2.80;;;;;;;;;;5106883;28;20048;-58
2023/10/05 02:36:11;;;;;;;7.50;2.60;;;;;;;;;;5087532;28;20509;-58
2023/10/05 02:38:38;;;;;;;4.32;2.50;;;;;;;;;;5088318;28;20031;-58
2023/10/05 02:41:05;;;;;;;6.45;2.85;;;;;;;;;;5090406;28;20490;-57
2023/10/05 02:43:38;;;;;;;5.93;2.67;;;;;;;;;;5090065;28;20028;-58
2023/10/05 02:46:10;;;;;;;5.80;2.47;;;;;;;;;;5081975;28;20046;-58
2023/10/05 02:48:39;;;;;;;5.10;2.80;;;;;;;;;;5091256;28;20043;-59
2023/10/05 02:51:06;;;;;;;6.95;2.80;;;;;;;;;;5107847;28;20047;-59
2023/10/05 02:53:46;;;;;;;6.90;2.85;;;;;;;;;;5107069;28;20038;-59
2023/10/05 02:56:27;;;;;;;4.53;2.72;;;;;;;;;;5107950;28;20036;-59
2023/10/05 02:58:55;;;;;;;6.95;2.67;;;;;;;;;;5109358;28;20051;-58
2023/10/05 03:01:23;;;;;;;7.80;2.70;;;;;;;;;;5108798;28;20398;-58
2023/10/05 03:03:54;;;;;;;8.32;2.72;;;;;;;;;;5085128;28;20072;-58
2023/10/05 03:06:23;;;;;;;4.30;2.50;;;;;;;;;;5090276;28;20044;-59
2023/10/05 03:08:54;;;;;;;7.00;2.50;;;;;;;;;;5088512;28;20047;-58
2023/10/05 03:11:20;;;;;;;4.25;2.13;;;;;;;;;;5084873;28;20028;-58
2023/10/05 03:13:47;;;;;;;10.13;2.78;;;;;;;;;;5087531;28;20054;-59
2023/10/05 03:16:16;;;;;;;4.63;2.50;;;;;;;;;;5089075;28;20040;-58
2023/10/05 03:18:43;;;;;;;5.30;2.35;;;;;;;;;;5088899;28;20040;-58
2023/10/05 03:21:15;;;;;;;6.00;2.50;;;;;;;;;;5084532;28;20046;-57
2023/10/05 03:23:42;;;;;;;7.40;2.92;;;;;;;;;;5104436;28;20427;-58
2023/10/05 03:26:10;;;;;;;4.60;2.55;;;;;;;;;;5085763;28;20039;-58
2023/10/05 03:28:37;;;;;;;4.75;2.20;;;;;;;;;;5087249;28;20040;-60
2023/10/05 03:31:37;;;;;;;4.13;2.45;;;;;;;;;;5085013;28;20084;-59
2023/10/05 03:34:07;;;;;;;6.75;2.28;;;;;;;;;;5106272;28;20055;-59
2023/10/05 03:36:33;;;;;;;5.18;2.50;;;;;;;;;;5090132;28;20607;-60
2023/10/05 03:39:06;;;;;;;6.18;2.40;;;;;;;;;;5106892;28;20043;-60
2023/10/05 03:41:32;;;;;;;6.95;2.38;;;;;;;;;;5091081;28;20054;-60
2023/10/05 03:44:02;;;;;;;6.28;3.15;;;;;;;;;;5107078;28;20039;-57
2023/10/05 03:46:29;;;;;;;8.82;2.95;;;;;;;;;;5088510;28;20043;-58
2023/10/05 03:49:02;;;;;;;8.02;2.45;;;;;;;;;;5106331;28;20475;-59
2023/10/05 03:51:29;;;;;;;6.10;2.58;;;;;;;;;;5106315;28;20077;-58
2023/10/05 03:53:56;;;;;;;5.20;2.70;;;;;;;;;;5088085;28;20031;-58
2023/10/05 03:56:25;;;;;;;7.28;2.80;;;;;;;;;;5085890;28;20498;-58
2023/10/05 03:58:54;;;;;;;4.90;2.67;;;;;;;;;;5086335;28;20035;-58
2023/10/05 04:01:24;;;;;;;5.13;2.83;;;;;;;;;;5088495;28;20043;-58
2023/10/05 04:03:50;;;;;;;14.52;5.75;;;;;;;;;;5103831;28;20039;-59
2023/10/05 04:06:17;;;;;;;9.13;3.25;;;;;;;;;;5102216;28;20078;-58
2023/10/05 04:08:49;;;;;;;10.57;2.80;;;;;;;;;;5088485;28;20495;-58
2023/10/05 04:11:17;;;;;;;5.45;3.17;;;;;;;;;;5106840;28;20392;-58
2023/10/05 04:13:43;;;;;;;4.60;2.90;;;;;;;;;;5105700;28;20028;-59
2023/10/05 04:16:17;;;;;;;6.85;2.60;;;;;;;;;;5106275;28;20570;-58
2023/10/05 04:18:46;;;;;;;5.40;2.80;;;;;;;;;;5088636;28;20054;-58
2023/10/05 04:21:18;;;;;;;8.00;2.90;;;;;;;;;;5086318;28;20047;-58
2023/10/05 04:23:49;;;;;;;7.00;3.00;;;;;;;;;;5105855;28;20040;-58
2023/10/05 04:26:20;;;;;;;4.53;2.70;;;;;;;;;;5103339;28;20051;-57
2023/10/05 04:28:53;;;;;;;6.35;3.17;;;;;;;;;;5104647;28;20395;-59
2023/10/05 04:31:25;;;;;;;6.05;3.08;;;;;;;;;;5107437;28;20494;-59
2023/10/05 04:33:54;;;;;;;8.63;2.90;;;;;;;;;;5105384;28;20039;-59
2023/10/05 04:36:24;;;;;;;6.95;2.92;;;;;;;;;;5104711;28;20387;-59
2023/10/05 04:38:53;;;;;;;13.80;4.30;;;;;;;;;;5106910;28;20039;-59
2023/10/05 04:41:33;;;;;;;7.65;3.40;;;;;;;;;;5103598;28;20414;-59
2023/10/05 04:44:00;;;;;;;7.18;3.35;;;;;;;;;;5103170;28;20032;-59
2023/10/05 04:46:28;;;;;;;10.52;4.28;;;;;;;;;;5105578;28;20035;-59
2023/10/05 04:48:55;;;;;;;28.60;12.50;;;;;;;;;;5106048;28;20024;-59
2023/10/05 04:51:27;;;;;;;13.20;5.45;;;;;;;;;;5105797;28;20406;-59
2023/10/05 04:53:58;;;;;;;9.35;4.00;;;;;;;;;;5105523;28;20035;-59
2023/10/05 04:56:43;;;;;;;;;;;;;;;;;;;;;
2023/10/05 05:07:07;;;;;;;10.85;3.42;;;;;;;;;;5104112;28;20104;-59
2023/10/05 05:09:39;;;;;;;10.52;3.38;;;;;;;;;;5104038;28;20059;-58
2023/10/05 05:12:20;;;;;;;5.75;2.80;;;;;;;;;;5106267;28;20043;-59
2023/10/05 05:14:49;;;;;;;10.30;3.08;;;;;;;;;;5104559;28;20054;-59
2023/10/05 05:17:18;;;;;;;;;;;;;;;;;;5068213;28;20046;-59
2023/10/05 05:19:46;;;;;;;12.95;3.17;;;;;;;;;;5105866;28;19918;-59
2023/10/05 05:22:13;;;;;;;8.43;2.92;;;;;;;;;;5105741;28;22505;-58
2023/10/05 05:24:41;;;;;;;19.00;7.00;;;;;;;;;;5104557;28;20043;-60
2023/10/05 05:27:19;;;;;;;11.85;4.90;;;;;;;;;;5104606;28;20031;-60
2023/10/05 05:29:46;;;;;;;13.15;5.00;;;;;;;;;;5104101;28;20051;-59
2023/10/05 05:32:13;;;;;;;16.13;4.80;;;;;;;;;;5087864;28;21624;-59
2023/10/05 05:34:50;;;;;;;14.43;4.78;;;;;;;;;;5104347;28;20031;-59
2023/10/05 05:37:28;;;;;;;18.95;6.88;;;;;;;;;;5105231;28;20040;-59
2023/10/05 05:39:55;;;;;;;14.98;5.63;;;;;;;;;;5087097;28;20040;-59
2023/10/05 05:42:25;;;;;;;21.13;6.03;;;;;;;;;;5087964;28;20024;-59
2023/10/05 05:44:54;;;;;;;16.77;5.53;;;;;;;;;;5105068;28;20410;-59
2023/10/05 05:47:20;;;;;;;;;;;;;;;;;;5105642;28;20044;-59
2023/10/05 05:49:47;;;;;;;11.55;4.13;;;;;;;;;;5108710;28;20345;-59
2023/10/05 05:52:14;;;;;;;13.20;4.65;;;;;;;;;;5110942;28;20482;-59
2023/10/05 05:54:41;;;;;;;13.25;5.55;;;;;;;;;;5108842;28;20051;-59
2023/10/05 05:57:11;;;;;;;18.35;5.78;;;;;;;;;;5110345;28;20042;-59
2023/10/05 05:59:39;;;;;;;16.75;6.65;;;;;;;;;;5110415;28;20058;-59
2023/10/05 06:02:07;;;;;;;21.08;8.43;;;;;;;;;;5108949;28;20044;-59
2023/10/05 06:04:39;;;;;;;23.20;8.25;;;;;;;;;;5106678;28;20114;-60
2023/10/05 06:07:11;;;;;;;18.27;8.20;;;;;;;;;;5107988;28;20043;-59
2023/10/05 06:09:45;;;;;;;18.58;7.95;;;;;;;;;;5108596;28;20043;-59
2023/10/05 06:12:12;;;;;;;20.83;9.00;;;;;;;;;;5068596;28;20399;-59
2023/10/05 06:14:40;;;;;;;17.45;8.02;;;;;;;;;;5107819;28;20034;-59
2023/10/05 06:17:10;;;;;;;22.88;8.35;;;;;;;;;;5108813;28;20406;-59
2023/10/05 06:19:36;;;;;;;;;;;;;;;;;;5109151;28;20045;-59
2023/10/05 06:22:06;;;;;;;21.73;7.40;;;;;;;;;;5108947;28;19994;-58
2023/10/05 06:24:41;;;;;;;23.15;8.68;;;;;;;;;;5090195;28;20042;-60
2023/10/05 06:27:07;;;;;;;19.80;9.52;;;;;;;;;;5106264;28;20046;-58
2023/10/05 06:29:34;;;;;;;17.17;7.80;;;;;;;;;;5110373;28;20383;-59
2023/10/05 06:32:00;;;;;;;17.52;7.65;;;;;;;;;;5084811;28;20043;-59
2023/10/05 06:34:26;;;;;;;24.20;8.93;;;;;;;;;;5090584;28;20047;-59
2023/10/05 06:36:53;;;;;;;24.38;10.13;;;;;;;;;;5089475;28;20530;-59
2023/10/05 06:39:19;;;;;;;26.85;13.50;;;;;;;;;;5108398;28;20031;-58
2023/10/05 06:41:45;;;;;;;29.85;12.73;;;;;;;;;;5106889;28;20031;-59
2023/10/05 06:44:11;;;;;;;27.90;10.85;;;;;;;;;;5108033;28;20034;-59
2023/10/05 06:46:41;;;;;;;22.92;9.35;;;;;;;;;;5107585;28;20032;-59
2023/10/05 06:49:07;;;;;;;22.38;9.05;;;;;;;;;;5085921;28;20050;-59
2023/10/05 06:51:33;;;;;;;21.00;9.00;;;;;;;;;;5110007;28;20039;-59
2023/10/05 06:53:59;;;;;;;20.92;9.85;;;;;;;;;;5086828;28;20055;-58
2023/10/05 06:56:26;;;;;;;21.95;9.93;;;;;;;;;;5107653;28;20047;-59
2023/10/05 06:58:54;;;;;;;19.13;8.55;;;;;;;;;;5071841;28;20031;-59
2023/10/05 07:01:20;;;;;;;24.85;8.45;;;;;;;;;;5106894;28;20031;-59
2023/10/05 07:03:52;;;;;;;15.25;7.68;;;;;;;;;;5106150;28;20059;-58
2023/10/05 07:06:22;;;;;;;16.65;7.32;;;;;;;;;;5108816;28;20035;-57
2023/10/05 07:08:49;;;;;;;17.25;6.90;;;;;;;;;;5108080;28;20028;-60
2023/10/05 07:11:16;;;;;;;17.25;7.07;;;;;;;;;;5106176;28;21591;-59
2023/10/05 07:13:42;;;;;;;15.55;7.07;;;;;;;;;;5106099;28;20044;-58
2023/10/05 07:16:09;;;;;;;21.45;8.20;;;;;;;;;;5106739;28;20039;-59
2023/10/05 07:18:35;;;;;;;33.90;12.43;;;;;;;;;;5107422;28;20055;-58
2023/10/05 07:21:04;;;;;;;20.92;11.60;;;;;;;;;;5107741;28;20046;-57
2023/10/05 07:23:31;;;;;;;27.55;11.55;;;;;;;;;;5104977;28;20028;-58
2023/10/05 07:25:58;;;;;;;29.83;12.23;;;;;;;;;;5104105;28;20047;-58
2023/10/05 07:28:25;;;;;;;22.50;10.38;;;;;;;;;;5107591;28;20062;-58
2023/10/05 07:30:51;;;;;;;18.92;9.13;;;;;;;;;;5106890;28;20039;-58
2023/10/05 07:33:17;;;;;;;23.00;8.52;;;;;;;;;;5105460;28;20039;-58
2023/10/05 07:35:44;;;;;;;18.33;7.88;;;;;;;;;;5105852;28;20522;-58
2023/10/05 07:38:14;;;;;;;22.25;8.00;;;;;;;;;;5107418;28;20399;-58
2023/10/05 07:40:42;;;;;;;22.08;8.48;;;;;;;;;;5088098;28;20039;-58
2023/10/05 07:43:08;;;;;;;21.88;8.02;;;;;;;;;;5106209;28;20474;-58
2023/10/05 07:45:34;;;;;;;20.35;7.03;;;;;;;;;;5106181;28;20027;-58
2023/10/05 07:48:01;;;;;;;12.48;5.97;;;;;;;;;;5107193;28;20036;-58
2023/10/05 07:50:27;;;;;;;17.77;6.35;;;;;;;;;;5108802;28;20043;-59
2023/10/05 07:52:55;;;;;;;19.55;6.40;;;;;;;;;;5089841;28;20049;-59
2023/10/05 07:55:21;;;;;;;15.23;7.00;;;;;;;;;;5106544;28;20487;-58
2023/10/05 07:57:48;;;;;;;19.80;7.22;;;;;;;;;;5107735;28;20031;-59
2023/10/05 08:00:15;;;;;;;18.55;6.38;;;;;;;;;;5107372;28;20043;-58
2023/10/05 08:02:41;;;;;;;17.52;6.35;;;;;;;;;;5107342;28;20035;-58
2023/10/05 08:05:09;;;;;;;17.38;5.95;;;;;;;;;;5104676;28;20046;-58
2023/10/05 08:07:35;;;;;;;21.33;6.70;;;;;;;;;;5106285;28;20054;-58
2023/10/05 08:10:03;;;;;;;20.17;6.90;;;;;;;;;;5089781;28;20494;-59
2023/10/05 08:12:29;;;;;;;15.07;6.60;;;;;;;;;;5104267;28;20036;-59
2023/10/05 08:14:56;;;;;;;19.80;6.22;;;;;;;;;;5106326;28;20418;-59
2023/10/05 08:17:22;;;;;;;18.40;6.38;;;;;;;;;;5106713;28;20035;-59
2023/10/05 08:19:48;;;;;;;14.68;5.75;;;;;;;;;;5105755;28;20044;-59
2023/10/05 08:22:17;;;;;;;15.20;5.97;;;;;;;;;;5106764;28;20032;-59
2023/10/05 08:24:44;;;;;;;18.95;6.28;;;;;;;;;;5105651;28;20047;-59
2023/10/05 08:27:14;;;;;;;17.90;6.53;;;;;;;;;;5084318;28;20054;-59
2023/10/05 08:29:42;;;;;;;16.58;6.20;;;;;;;;;;5103451;28;20034;-59
2023/10/05 08:32:13;;;;;;;17.25;6.00;;;;;;;;;;5104355;28;20607;-58
2023/10/05 08:34:41;;;;;;;12.93;5.75;;;;;;;;;;5105639;28;20046;-58
2023/10/05 08:37:08;;;;;;;16.65;5.65;;;;;;;;;;5102981;28;20048;-59
2023/10/05 08:39:37;;;;;;;18.20;7.38;;;;;;;;;;5105260;28;20043;-59
2023/10/05 08:42:06;;;;;;;15.15;6.13;;;;;;;;;;5103888;28;20510;-59
2023/10/05 08:44:41;;;;;;;14.80;6.35;;;;;;;;;;5104712;28;20062;-60
2023/10/05 08:47:12;;;;;;;13.70;5.50;;;;;;;;;;5105075;28;20054;-59
2023/10/05 08:49:43;;;;;;;14.70;5.07;;;;;;;;;;5108012;28;20032;-59
2023/10/05 08:52:20;;;;;;;15.77;5.80;;;;;;;;;;5106216;28;20426;-58
2023/10/05 08:54:47;;;;;;;25.38;6.65;;;;;;;;;;5105308;28;20647;-58
2023/10/05 08:57:16;;;;;;;15.25;5.50;;;;;;;;;;5106406;28;20062;-59
2023/10/05 08:59:46;;;;;;;27.95;6.00;;;;;;;;;;5104752;28;20047;-58
2023/10/05 09:02:18;;;;;;;19.13;6.40;;;;;;;;;;5105358;28;20042;-58
2023/10/05 09:04:51;;;;;;;22.70;6.35;;;;;;;;;;5104605;28;20039;-61
2023/10/05 09:07:38;;;;;;;18.98;5.93;;;;;;;;;;5087280;28;20518;-58
2023/10/05 09:10:07;;;;;;;20.52;5.60;;;;;;;;;;5102979;28;20044;-59
2023/10/05 09:12:38;;;;;;;;;;;;;;;;;;5105394;28;20043;-59
2023/10/05 09:20:36;;;;;;;18.02;6.10;;;;;;;;;;5110155;28;20048;-59
2023/10/05 09:23:04;;;;;;;18.05;6.25;;;;;;;;;;5108971;28;20419;-58
2023/10/05 09:25:36;;;;;;;13.32;5.15;;;;;;;;;;5106049;28;20044;-58
2023/10/05 09:28:19;;;;;;;15.75;4.93;;;;;;;;;;5110376;28;20088;-59
2023/10/05 09:30:49;;;;;;;15.05;6.28;;;;;;;;;;5107590;28;20039;-59
2023/10/05 09:33:18;;;;;;;17.05;5.15;;;;;;;;;;5107966;28;20407;-59
2023/10/05 09:35:46;;;;;;;16.23;5.30;;;;;;;;;;5109410;28;20043;-58
2023/10/05 09:38:19;;;;;;;15.90;4.75;;;;;;;;;;5111464;28;20036;-58
2023/10/05 09:40:48;;;;;;;13.02;4.32;;;;;;;;;;5107265;28;20399;-59
2023/10/05 09:43:21;;;;;;;13.90;4.50;;;;;;;;;;5107938;28;20411;-58
2023/10/05 09:45:56;;;;;;;13.50;4.65;;;;;;;;;;5108326;28;20039;-59
2023/10/05 09:48:24;;;;;;;13.23;3.95;;;;;;;;;;5110924;28;20062;-59
2023/10/05 09:50:52;;;;;;;9.73;3.40;;;;;;;;;;5089778;28;20032;-57
2023/10/05 09:53:19;;;;;;;12.07;3.40;;;;;;;;;;5109774;28;20031;-57
2023/10/05 09:55:49;;;;;;;12.63;4.35;;;;;;;;;;5107222;28;20043;-57
2023/10/05 09:58:18;;;;;;;9.73;4.03;;;;;;;;;;5109287;28;20528;-59
2023/10/05 10:03:11;;;;;;;12.85;4.32;;;;;;;;;;5109511;28;20046;-59
2023/10/05 10:05:48;;;;;;;10.63;4.45;;;;;;;;;;5107155;28;20047;-58
2023/10/05 10:08:28;;;;;;;10.80;4.30;;;;;;;;;;5105698;28;20031;-58
2023/10/05 10:11:06;;;;;;;16.33;3.67;;;;;;;;;;5103521;28;20028;-59
2023/10/05 10:13:37;;;;;;;11.73;3.85;;;;;;;;;;5107225;28;20039;-60
2023/10/05 10:16:23;;;;;;;13.20;4.00;;;;;;;;;;5091177;28;20416;-59
2023/10/05 10:19:04;;;;;;;16.40;5.47;;;;;;;;;;5110364;28;20040;-59
2023/10/05 10:21:46;;;;;;;11.85;3.80;;;;;;;;;;5107934;28;20047;-59
2023/10/05 10:24:19;;;;;;;10.77;3.35;;;;;;;;;;5107442;28;20051;-59
2023/10/05 10:27:08;;;;;;;15.65;4.05;;;;;;;;;;5073927;28;20032;-59
2023/10/05 10:29:47;;;;;;;13.87;4.13;;;;;;;;;;5105234;28;20391;-59
2023/10/05 10:32:22;;;;;;;11.30;4.15;;;;;;;;;;5107230;28;20046;-60
2023/10/05 10:34:56;;;;;;;11.15;3.75;;;;;;;;;;5106488;28;20040;-59
2023/10/05 10:37:39;;;;;;;9.45;3.20;;;;;;;;;;5108228;28;20039;-60
2023/10/05 10:43:09;;;;;;;7.68;3.10;;;;;;;;;;5107653;28;20059;-59
2023/10/05 10:45:41;;;;;;;9.18;3.25;;;;;;;;;;5105032;28;20035;-59
2023/10/05 10:48:09;;;;;;;9.32;3.10;;;;;;;;;;5106914;28;20034;-58
2023/10/05 10:50:38;;;;;;;12.98;2.88;;;;;;;;;;5108983;28;20384;-59
2023/10/05 10:53:16;;;;;;;11.85;3.00;;;;;;;;;;5108187;28;20066;-60
2023/10/05 10:55:47;;;;;;;8.60;3.20;;;;;;;;;;5106452;28;20039;-59
2023/10/05 10:58:16;;;;;;;10.38;3.05;;;;;;;;;;5107938;28;20032;-59
2023/10/05 11:00:56;;;;;;;6.03;2.90;;;;;;;;;;5108014;28;20028;-59
2023/10/05 11:03:27;;;;;;;10.73;2.60;;;;;;;;;;5106281;28;20054;-58
2023/10/05 11:05:58;;;;;;;11.05;3.20;;;;;;;;;;5099329;28;20066;-59
2023/10/05 11:08:30;;;;;;;7.68;3.03;;;;;;;;;;5106479;28;20048;-59
2023/10/05 11:11:06;;;;;;;8.43;3.08;;;;;;;;;;5110237;28;20024;-60
2023/10/05 11:13:33;;;;;;;6.65;3.00;;;;;;;;;;5107284;28;20062;-59
2023/10/05 11:15:59;;;;;;;7.70;2.88;;;;;;;;;;5108363;28;20514;-59
2023/10/05 11:18:26;;;;;;;9.68;3.03;;;;;;;;;;5088827;28;20059;-60
2023/10/05 11:20:53;;;;;;;9.57;2.60;;;;;;;;;;5104447;28;20040;-59
2023/10/05 11:23:25;;;;;;;8.13;2.50;;;;;;;;;;5105577;28;20051;-60
2023/10/05 11:26:17;;;;;;;10.25;2.25;;;;;;;;;;5106482;28;20043;-59
2023/10/05 11:28:40;;;;;;;12.00;3.15;;;;;;;;;;5106491;28;20061;-59
2023/10/05 11:31:11;;;;;;;8.98;3.50;;;;;;;;;;5105496;28;20066;-57
2023/10/05 11:33:41;;;;;;;8.48;2.85;;;;;;;;;;5105629;28;20043;-59
2023/10/05 11:36:21;;;;;;;6.22;3.00;;;;;;;;;;5105927;28;20510;-59
2023/10/05 11:38:48;;;;;;;7.65;2.80;;;;;;;;;;5105085;28;20043;-59
2023/10/05 11:41:23;;;;;;;9.80;3.35;;;;;;;;;;5106802;28;20544;-59
2023/10/05 11:43:52;;;;;;;8.73;2.92;;;;;;;;;;5105818;28;20031;-59
2023/10/05 11:46:26;;;;;;;12.48;4.10;;;;;;;;;;5107685;28;20027;-60
2023/10/05 11:48:55;;;;;;;8.82;3.15;;;;;;;;;;5107013;28;20054;-60
2023/10/05 11:51:42;;;;;;;7.82;2.80;;;;;;;;;;5107766;28;20032;-58
2023/10/05 11:54:19;;;;;;;10.85;2.92;;;;;;;;;;5106326;28;20055;-59
2023/10/05 11:56:46;;;;;;;8.68;2.95;;;;;;;;;;5071309;28;20536;-60
2023/10/05 11:59:13;;;;;;;11.48;3.13;;;;;;;;;;5107409;28;20047;-60
2023/10/05 12:01:43;;;;;;;11.95;3.17;;;;;;;;;;5106951;28;20028;-59
2023/10/05 12:04:09;;;;;;;9.75;3.05;;;;;;;;;;5106882;28;20047;-59
2023/10/05 12:06:38;;;;;;;9.20;3.47;;;;;;;;;;5105799;28;20042;-60
2023/10/05 12:09:07;;;;;;;;;;;;;;;;;;5109219;28;20506;-59
2023/10/05 12:11:34;;;;;;;7.63;2.92;;;;;;;;;;5107579;28;20300;-59
2023/10/05 12:14:00;;;;;;;7.53;2.97;;;;;;;;;;5088436;28;20043;-60
2023/10/05 12:16:27;;;;;;;9.68;3.50;;;;;;;;;;5105279;28;20494;-59
2023/10/05 12:18:54;;;;;;;10.18;3.25;;;;;;;;;;5101594;28;20054;-59
2023/10/05 12:21:21;;;;;;;8.15;3.08;;;;;;;;;;5104132;28;20047;-59
2023/10/05 12:23:47;;;;;;;9.23;3.25;;;;;;;;;;5104907;28;20167;-59
2023/10/05 12:26:15;;;;;;;8.98;3.20;;;;;;;;;;5104551;28;20036;-59
2023/10/05 12:28:43;;;;;;;10.18;3.03;;;;;;;;;;5107162;28;20027;-59
2023/10/05 12:31:10;;;;;;;9.10;3.17;;;;;;;;;;5105415;28;20054;-59
2023/10/05 12:33:39;;;;;;;10.25;3.70;;;;;;;;;;5106116;28;20406;-59
2023/10/05 12:36:08;;;;;;;10.02;3.45;;;;;;;;;;5105227;28;20043;-59
2023/10/05 12:38:36;;;;;;;10.82;4.00;;;;;;;;;;5105652;28;20039;-59
2023/10/05 12:41:14;;;;;;;17.67;3.95;;;;;;;;;;5088386;28;20529;-59
2023/10/05 12:43:42;;;;;;;11.95;3.40;;;;;;;;;;5106356;28;20034;-59
2023/10/05 12:46:12;;;;;;;12.35;3.65;;;;;;;;;;5106766;28;20039;-59
2023/10/05 12:48:39;;;;;;;9.40;2.90;;;;;;;;;;5101125;28;20040;-60
2023/10/05 12:51:08;;;;;;;7.47;3.20;;;;;;;;;;5106766;28;20449;-59
2023/10/05 12:53:38;;;;;;;6.95;3.28;;;;;;;;;;5107934;28;20075;-59
2023/10/05 12:56:04;;;;;;;10.27;2.90;;;;;;;;;;5113231;28;20043;-59
2023/10/05 12:58:32;;;;;;;13.90;3.53;;;;;;;;;;5112135;28;20040;-59
2023/10/05 13:01:07;;;;;;;7.63;3.03;;;;;;;;;;5113155;28;20042;-59
2023/10/05 13:03:35;;;;;;;15.88;4.28;;;;;;;;;;5111961;28;20039;-59
2023/10/05 13:06:02;;;;;;;9.90;3.50;;;;;;;;;;5113906;28;20062;-59
2023/10/05 13:08:28;;;;;;;9.93;3.45;;;;;;;;;;5112703;28;20676;-59
2023/10/05 13:10:56;;;;;;;12.02;3.38;;;;;;;;;;5113287;28;20040;-59
2023/10/05 13:13:25;;;;;;;9.60;3.50;;;;;;;;;;5110914;28;20055;-59
2023/10/05 13:15:53;;;;;;;12.73;3.85;;;;;;;;;;5112632;28;20405;-59
2023/10/05 13:18:19;;;;;;;8.30;3.63;;;;;;;;;;5113736;28;20038;-59
2023/10/05 13:20:49;;;;;;;11.10;2.90;;;;;;;;;;5113445;28;20487;-59
2023/10/05 13:23:19;;;;;;;15.40;4.05;;;;;;;;;;5111055;28;20039;-59
2023/10/05 13:25:48;;;;;;;9.25;3.22;;;;;;;;;;5112883;28;20039;-59
2023/10/05 13:28:16;;;;;;;12.77;4.57;;;;;;;;;;5094695;28;20059;-59
2023/10/05 13:30:50;;;;;;;11.02;3.70;;;;;;;;;;5111584;28;20053;-59
2023/10/05 13:33:21;;;;;;;10.30;3.58;;;;;;;;;;5113908;28;20052;-59
2023/10/05 13:35:49;;;;;;;10.43;3.17;;;;;;;;;;5112708;28;20398;-59
2023/10/05 13:38:19;;;;;;;11.43;3.75;;;;;;;;;;5112016;28;20058;-59
2023/10/05 13:40:57;;;;;;;11.95;4.00;;;;;;;;;;5110485;28;20048;-59
2023/10/05 13:43:28;;;;;;;10.70;3.38;;;;;;;;;;5109236;28;20047;-58
2023/10/05 13:45:55;;;;;;;11.27;3.88;;;;;;;;;;5107647;28;20043;-59
2023/10/05 13:48:22;;;;;;;10.20;3.83;;;;;;;;;;5095432;28;20043;-58
2023/10/05 13:50:50;;;;;;;9.20;2.97;;;;;;;;;;5112620;28;20433;-59
2023/10/05 13:53:17;;;;;;;12.38;3.40;;;;;;;;;;5094256;28;20054;-59
2023/10/05 13:55:44;;;;;;;9.98;2.90;;;;;;;;;;5112398;28;20066;-59
2023/10/05 13:58:12;;;;;;;7.95;3.20;;;;;;;;;;5093491;28;20036;-60
2023/10/05 14:00:42;;;;;;;8.43;3.15;;;;;;;;;;5111252;28;20043;-58
2023/10/05 14:03:08;;;;;;;11.40;4.45;;;;;;;;;;5113925;28;20050;-59
2023/10/05 14:05:35;;;;;;;12.70;4.15;;;;;;;;;;5110562;28;20043;-60
2023/10/05 14:08:07;;;;;;;7.93;3.08;;;;;;;;;;5110138;28;20044;-60
2023/10/05 14:10:33;;;;;;;11.43;4.00;;;;;;;;;;5108676;28;20044;-60
2023/10/05 14:12:59;;;;;;;8.75;3.25;;;;;;;;;;5106908;28;20039;-60
2023/10/05 14:15:25;;;;;;;8.88;3.40;;;;;;;;;;5086395;28;20040;-60
2023/10/05 14:17:52;;;;;;;9.70;3.33;;;;;;;;;;5108558;28;20115;-60
2023/10/05 14:20:18;;;;;;;10.57;4.70;;;;;;;;;;5108136;28;20039;-60
2023/10/05 14:22:45;;;;;;;14.23;5.00;;;;;;;;;;5109680;28;20130;-60
2023/10/05 14:25:18;;;;;;;12.77;4.70;;;;;;;;;;5107374;28;20051;-59
2023/10/05 14:27:45;;;;;;;8.98;3.30;;;;;;;;;;5109159;28;20035;-60
2023/10/05 14:30:20;;;;;;;11.25;4.00;;;;;;;;;;5089800;28;20051;-60
2023/10/05 14:32:49;;;;;;;12.23;3.92;;;;;;;;;;5107767;28;20039;-60
2023/10/05 14:35:18;;;;;;;10.00;3.53;;;;;;;;;;5105601;28;20036;-60
2023/10/05 14:37:45;;;;;;;12.85;3.67;;;;;;;;;;5107789;28;20067;-59
2023/10/05 14:40:18;;;;;;;9.77;3.10;;;;;;;;;;5105385;28;20048;-59
2023/10/05 14:42:46;;;;;;;8.43;3.45;;;;;;;;;;5110459;28;20036;-60
2023/10/05 14:45:12;;;;;;;8.90;2.97;;;;;;;;;;5108475;28;20039;-59
2023/10/05 14:47:41;;;;;;;5.80;2.72;;;;;;;;;;5108411;28;20036;-58
2023/10/05 14:50:08;;;;;;;7.70;2.50;;;;;;;;;;5105009;27;20052;-58
2023/10/05 14:52:37;;;;;;;11.13;3.15;;;;;;;;;;5107800;28;20058;-57
2023/10/05 14:55:04;;;;;;;8.50;3.00;;;;;;;;;;5108116;28;20036;-60
2023/10/05 14:57:30;;;;;;;7.95;3.30;;;;;;;;;;5107738;28;20043;-59
2023/10/05 14:59:56;;;;;;;8.82;3.47;;;;;;;;;;5109524;28;20487;-60
2023/10/05 15:02:23;;;;;;;8.75;3.65;;;;;;;;;;5107919;28;20517;-59
2023/10/05 15:04:49;;;;;;;6.90;3.38;;;;;;;;;;5107540;28;20043;-59
2023/10/05 15:07:15;;;;;;;12.48;5.00;;;;;;;;;;5106744;28;20141;-59
2023/10/05 15:09:41;;;;;;;9.73;4.65;;;;;;;;;;5108504;28;20402;-59
2023/10/05 15:12:08;;;;;;;11.95;4.22;;;;;;;;;;5108623;28;20035;-59
2023/10/05 15:14:35;;;;;;;8.50;3.22;;;;;;;;;;5106433;28;20486;-59
2023/10/05 15:17:01;;;;;;;8.93;3.17;;;;;;;;;;5105348;28;20419;-59
2023/10/05 15:19:28;;;;;;;8.57;3.10;;;;;;;;;;5107649;28;20036;-59